createdAt,value
2018-10-17T00:00:10.986Z,17.20
2018-10-17T00:02:38.918Z,19.37
2018-10-17T00:05:07.248Z,18.87
2018-10-17T00:07:35.128Z,18.07
2018-10-17T00:10:03.082Z,18.17
2018-10-17T00:12:31.047Z,19.80
2018-10-17T00:14:59.035Z,17.93
2018-10-17T00:17:26.958Z,16.20
2018-10-17T00:19:54.883Z,20.47
2018-10-17T00:22:22.803Z,19.00
2018-10-17T00:24:50.755Z,19.37
2018-10-17T00:27:18.683Z,19.07
2018-10-17T00:29:46.599Z,19.50
2018-10-17T00:32:14.574Z,20.90
2018-10-17T00:34:42.491Z,19.73
2018-10-17T00:37:10.474Z,22.33
2018-10-17T00:39:38.352Z,17.73
2018-10-17T00:42:06.300Z,19.37
2018-10-17T00:44:34.472Z,20.17
2018-10-17T00:47:02.418Z,19.70
2018-10-17T00:49:30.409Z,21.43
2018-10-17T00:51:58.316Z,19.03
2018-10-17T00:54:26.227Z,25.63
2018-10-17T00:56:54.182Z,20.47
2018-10-17T00:59:22.085Z,20.67
2018-10-17T01:01:50.003Z,21.60
2018-10-17T01:04:17.943Z,16.30
2018-10-17T01:06:45.977Z,19.47
2018-10-17T01:09:14.699Z,20.60
2018-10-17T01:11:42.791Z,19.50
2018-10-17T01:14:10.954Z,18.70
2018-10-17T01:16:38.942Z,19.80
2018-10-17T01:19:07.037Z,18.40
2018-10-17T01:21:35.480Z,18.13
2018-10-17T01:24:03.410Z,20.23
2018-10-17T01:26:31.311Z,17.57
2018-10-17T01:28:59.247Z,18.40
2018-10-17T01:31:27.167Z,16.93
2018-10-17T01:33:55.074Z,19.13
2018-10-17T01:36:22.994Z,17.70
2018-10-17T01:38:50.925Z,18.60
2018-10-17T01:41:18.952Z,19.23
2018-10-17T01:43:46.751Z,17.17
2018-10-17T01:46:14.650Z,15.60
2018-10-17T01:48:42.582Z,17.43
2018-10-17T01:51:10.495Z,16.83
2018-10-17T01:53:38.413Z,19.83
2018-10-17T01:56:06.339Z,20.93
2018-10-17T01:58:34.259Z,19.93
2018-10-17T02:01:02.204Z,20.63
2018-10-17T02:03:30.096Z,22.90
2018-10-17T02:05:58.032Z,18.87
2018-10-17T02:08:25.943Z,19.10
2018-10-17T02:10:53.963Z,18.00
2018-10-17T02:13:22.475Z,22.70
2018-10-17T02:15:51.901Z,19.97
2018-10-17T02:18:19.963Z,22.53
2018-10-17T02:20:48.028Z,21.27
2018-10-17T02:23:16.043Z,21.63
2018-10-17T02:25:43.981Z,18.53
2018-10-17T02:28:11.915Z,18.70
2018-10-17T02:30:39.819Z,19.63
2018-10-17T02:33:07.743Z,21.17
2018-10-17T02:35:35.671Z,17.00
2018-10-17T02:38:03.581Z,17.43
2018-10-17T02:40:31.508Z,19.17
2018-10-17T02:42:59.417Z,19.00
2018-10-17T02:45:27.338Z,25.13
2018-10-17T02:47:55.231Z,17.93
2018-10-17T02:50:23.141Z,22.40
2018-10-17T02:52:51.061Z,18.07
2018-10-17T02:55:18.982Z,20.63
2018-10-17T02:57:46.887Z,19.17
2018-10-17T03:00:14.792Z,19.57
2018-10-17T03:02:42.681Z,23.10
2018-10-17T03:05:10.679Z,22.10
2018-10-17T03:07:38.540Z,18.40
2018-10-17T03:10:06.500Z,20.13
2018-10-17T03:12:34.450Z,19.03
2018-10-17T03:15:02.364Z,19.70
2018-10-17T03:17:30.288Z,20.60
2018-10-17T03:19:58.215Z,22.33
2018-10-17T03:22:26.131Z,18.00
2018-10-17T03:24:54.086Z,18.67
2018-10-17T03:27:21.942Z,20.90
2018-10-17T03:29:49.867Z,24.07
2018-10-17T03:32:18.147Z,20.87
2018-10-17T03:34:46.096Z,21.00
2018-10-17T03:37:14.162Z,21.60
2018-10-17T03:39:41.960Z,19.33
2018-10-17T03:42:09.875Z,19.90
2018-10-17T03:44:37.832Z,22.10
2018-10-17T03:47:05.788Z,18.07
2018-10-17T03:49:33.775Z,18.00
2018-10-17T03:52:01.648Z,19.93
2018-10-17T03:54:29.564Z,20.60
2018-10-17T03:56:57.497Z,19.13
2018-10-17T03:59:25.533Z,18.53
2018-10-17T04:01:53.357Z,18.33
2018-10-17T04:04:21.320Z,19.50
2018-10-17T04:06:49.231Z,20.10
2018-10-17T04:09:17.182Z,17.10
2018-10-17T04:11:45.180Z,16.07
2018-10-17T04:14:13.128Z,18.77
2018-10-17T04:16:41.088Z,18.33
2018-10-17T04:19:09.056Z,21.37
2018-10-17T04:21:36.936Z,19.07
2018-10-17T04:24:05.071Z,20.40
2018-10-17T04:26:33.005Z,21.40
2018-10-17T04:29:00.977Z,18.43
2018-10-17T04:31:28.912Z,19.13
2018-10-17T04:33:56.825Z,19.43
2018-10-17T04:36:24.761Z,21.83
2018-10-17T04:38:52.663Z,17.97
2018-10-17T04:41:20.589Z,21.27
2018-10-17T04:43:48.580Z,19.07
2018-10-17T04:46:16.503Z,22.13
2018-10-17T04:48:44.408Z,19.17
2018-10-17T04:51:12.340Z,24.27
2018-10-17T04:53:40.308Z,21.90
2018-10-17T04:56:08.244Z,24.57
2018-10-17T04:58:36.176Z,24.53
2018-10-17T05:01:04.125Z,22.87
2018-10-17T05:03:32.004Z,22.60
2018-10-17T05:05:59.924Z,20.13
2018-10-17T05:08:27.877Z,19.87
2018-10-17T05:10:55.883Z,20.37
2018-10-17T05:13:23.744Z,22.70
2018-10-17T05:15:51.696Z,22.17
2018-10-17T05:18:19.658Z,20.40
2018-10-17T05:20:47.607Z,21.83
2018-10-17T05:23:15.584Z,20.20
2018-10-17T05:25:43.477Z,22.20
2018-10-17T05:28:11.452Z,21.07
2018-10-17T05:30:39.362Z,25.07
2018-10-17T05:33:07.516Z,22.47
2018-10-17T05:35:35.448Z,27.27
2018-10-17T05:38:03.710Z,20.03
2018-10-17T05:40:31.564Z,17.97
2018-10-17T05:42:59.529Z,19.60
2018-10-17T05:45:27.396Z,20.07
2018-10-17T05:47:55.275Z,20.27
2018-10-17T05:50:23.908Z,19.80
2018-10-17T05:52:51.855Z,18.93
2018-10-17T05:55:19.789Z,19.00
2018-10-17T05:57:47.688Z,21.50
2018-10-17T06:00:15.648Z,21.07
2018-10-17T06:02:43.624Z,20.07
2018-10-17T06:05:11.600Z,18.77
2018-10-17T06:07:39.495Z,21.13
2018-10-17T06:10:08.502Z,17.63
2018-10-17T06:12:36.398Z,22.23
2018-10-17T06:15:04.705Z,23.30
2018-10-17T06:17:32.632Z,20.23
2018-10-17T06:20:00.595Z,21.00
2018-10-17T06:22:28.492Z,17.27
2018-10-17T06:24:56.445Z,20.63
2018-10-17T06:27:24.332Z,20.77
2018-10-17T06:29:52.249Z,21.60
2018-10-17T06:32:20.188Z,22.73
2018-10-17T06:34:48.141Z,19.07
2018-10-17T06:37:16.150Z,21.83
2018-10-17T06:39:44.003Z,19.47
2018-10-17T06:42:11.942Z,19.43
2018-10-17T06:44:39.860Z,20.93
2018-10-17T06:47:08.455Z,19.07
2018-10-17T06:49:36.322Z,19.83
2018-10-17T06:52:04.298Z,20.37
2018-10-17T06:54:32.350Z,22.17
2018-10-17T06:57:00.214Z,20.70
2018-10-17T06:59:28.384Z,19.53
2018-10-17T07:01:56.414Z,18.33
2018-10-17T07:04:24.249Z,18.43
2018-10-17T07:06:52.232Z,23.53
2018-10-17T07:09:20.132Z,18.97
2018-10-17T07:11:48.070Z,21.97
2018-10-17T07:14:15.987Z,22.53
2018-10-17T07:16:43.939Z,21.00
2018-10-17T07:19:12.000Z,21.27
2018-10-17T07:21:39.866Z,18.67
2018-10-17T07:24:07.816Z,18.60
2018-10-17T07:26:35.729Z,17.27
2018-10-17T07:29:03.734Z,17.07
2018-10-17T07:31:31.588Z,18.50
2018-10-17T07:33:59.521Z,15.10
2018-10-17T07:36:27.448Z,15.83
2018-10-17T07:38:55.447Z,18.63
2018-10-17T07:41:23.412Z,13.63
2018-10-17T07:43:51.351Z,21.67
2018-10-17T07:46:19.308Z,13.90
2018-10-17T07:48:47.237Z,15.60
2018-10-17T07:51:15.179Z,14.53
2018-10-17T07:53:43.129Z,14.63
2018-10-17T07:56:11.096Z,16.13
2018-10-17T07:58:39.040Z,20.13
2018-10-17T08:01:06.988Z,18.70
2018-10-17T08:03:34.940Z,13.90
2018-10-17T08:06:02.988Z,16.33
2018-10-17T08:08:30.851Z,14.67
2018-10-17T08:10:58.790Z,16.33
2018-10-17T08:13:26.737Z,18.13
2018-10-17T08:15:54.676Z,14.77
2018-10-17T08:18:22.595Z,17.27
2018-10-17T08:20:50.508Z,14.23
2018-10-17T08:23:18.440Z,18.37
2018-10-17T08:25:46.427Z,16.43
2018-10-17T08:28:14.384Z,19.97
2018-10-17T08:30:42.417Z,16.67
2018-10-17T08:33:10.335Z,16.93
2018-10-17T08:35:38.296Z,20.03
2018-10-17T08:38:06.236Z,14.87
2018-10-17T08:40:34.127Z,16.47
2018-10-17T08:43:02.056Z,14.90
2018-10-17T08:45:30.015Z,17.73
2018-10-17T08:47:57.926Z,20.93
2018-10-17T08:50:25.907Z,16.40
2018-10-17T08:52:53.760Z,16.03
2018-10-17T08:55:21.702Z,22.17
2018-10-17T08:57:49.710Z,12.97
2018-10-17T09:00:17.578Z,16.40
2018-10-17T09:02:46.397Z,17.37
2018-10-17T09:05:14.328Z,14.40
2018-10-17T09:07:42.252Z,17.20
2018-10-17T09:10:10.188Z,15.07
2018-10-17T09:12:38.172Z,17.73
2018-10-17T09:15:06.760Z,13.03
2018-10-17T09:17:34.681Z,16.33
2018-10-17T09:20:02.971Z,15.40
2018-10-17T09:22:30.567Z,14.83
2018-10-17T09:24:58.541Z,17.07
2018-10-17T09:27:26.387Z,14.73
2018-10-17T09:29:54.399Z,15.37
2018-10-17T09:32:22.340Z,14.63
2018-10-17T09:34:50.300Z,14.27
2018-10-17T09:37:18.227Z,13.87
2018-10-17T09:39:46.145Z,13.93
2018-10-17T09:42:14.152Z,17.37
2018-10-17T09:44:41.991Z,11.37
2018-10-17T09:47:09.944Z,14.60
2018-10-17T09:49:37.892Z,16.43
2018-10-17T09:52:05.845Z,13.53
2018-10-17T09:54:33.735Z,15.03
2018-10-17T09:57:01.667Z,16.13
2018-10-17T09:59:29.616Z,10.47
2018-10-17T10:01:57.541Z,13.53
2018-10-17T10:04:25.480Z,15.15
2018-10-17T10:06:53.413Z,15.72
2018-10-17T10:09:21.330Z,11.53
2018-10-17T10:11:49.260Z,10.65
2018-10-17T10:14:17.182Z,9.83
2018-10-17T10:16:45.129Z,10.68
2018-10-17T10:19:13.035Z,9.95
2018-10-17T10:21:40.976Z,9.48
2018-10-17T10:24:08.947Z,9.03
2018-10-17T10:26:36.816Z,15.00
2018-10-17T10:29:04.965Z,8.55
2018-10-17T10:31:32.899Z,10.38
2018-10-17T10:34:00.868Z,16.50
2018-10-17T10:36:28.788Z,12.10
2018-10-17T10:38:56.711Z,8.55
2018-10-17T10:41:24.631Z,13.75
2018-10-17T10:43:52.740Z,10.72
2018-10-17T10:46:20.603Z,9.65
2018-10-17T10:48:48.578Z,10.05
2018-10-17T10:51:16.596Z,8.90
2018-10-17T10:53:44.416Z,9.17
2018-10-17T10:56:12.429Z,10.43
2018-10-17T10:58:40.300Z,11.93
2018-10-17T11:01:08.204Z,10.63
2018-10-17T11:03:36.111Z,10.70
2018-10-17T11:06:04.012Z,8.87
2018-10-17T11:08:31.907Z,9.93
2018-10-17T11:10:59.955Z,10.20
2018-10-17T11:13:27.832Z,8.77
2018-10-17T11:15:55.732Z,9.23
2018-10-17T11:18:23.685Z,13.03
2018-10-17T11:20:51.599Z,12.40
2018-10-17T11:23:19.590Z,9.17
2018-10-17T11:25:47.486Z,14.60
2018-10-17T11:28:15.441Z,10.03
2018-10-17T11:30:43.384Z,10.77
2018-10-17T11:33:11.432Z,12.93
2018-10-17T11:35:39.260Z,11.30
2018-10-17T11:38:07.205Z,12.40
2018-10-17T11:40:35.239Z,15.80
2018-10-17T11:43:03.077Z,10.40
2018-10-17T11:45:31.005Z,7.93
2018-10-17T11:47:58.896Z,8.80
2018-10-17T11:50:26.862Z,9.17
2018-10-17T11:52:54.973Z,12.57
2018-10-17T11:55:22.828Z,10.77
2018-10-17T12:00:33.224Z,11.40
2018-10-17T12:03:01.153Z,10.53
2018-10-17T12:05:29.359Z,7.70
2018-10-17T12:07:57.000Z,8.70
2018-10-17T12:10:24.912Z,11.87
2018-10-17T12:12:52.860Z,8.40
2018-10-17T12:15:20.807Z,9.90
2018-10-17T12:17:48.748Z,10.00
2018-10-17T12:20:16.684Z,10.80
2018-10-17T12:22:45.272Z,7.77
2018-10-17T12:25:13.743Z,12.23
2018-10-17T12:27:41.723Z,9.50
2018-10-17T12:30:11.871Z,9.97
2018-10-17T12:32:39.760Z,14.47
2018-10-17T12:35:07.815Z,8.17
2018-10-17T12:37:36.556Z,8.23
2018-10-17T12:40:05.418Z,8.70
2018-10-17T12:42:33.351Z,11.90
2018-10-17T12:45:01.323Z,14.10
2018-10-17T12:47:29.237Z,7.87
2018-10-17T12:49:57.240Z,12.97
2018-10-17T12:52:25.140Z,14.43
2018-10-17T12:54:53.065Z,9.43
2018-10-17T12:57:20.995Z,9.53
2018-10-17T12:59:48.928Z,8.53
2018-10-17T13:02:16.886Z,8.83
2018-10-17T13:04:44.801Z,12.23
2018-10-17T13:07:12.935Z,7.40
2018-10-17T13:09:40.708Z,12.47
2018-10-17T13:12:08.813Z,12.13
2018-10-17T13:14:36.733Z,9.73
2018-10-17T13:17:04.715Z,8.57
2018-10-17T13:19:32.618Z,10.40
2018-10-17T13:22:00.532Z,9.00
2018-10-17T13:24:28.528Z,7.77
2018-10-17T13:26:56.427Z,13.90
2018-10-17T13:29:24.362Z,11.03
2018-10-17T13:31:52.292Z,11.00
2018-10-17T13:34:20.297Z,8.80
2018-10-17T13:36:48.140Z,9.73
2018-10-17T13:39:16.108Z,8.73
2018-10-17T13:41:44.048Z,14.03
2018-10-17T13:44:11.986Z,10.83
2018-10-17T13:46:39.956Z,15.17
2018-10-17T13:49:08.008Z,12.00
2018-10-17T13:51:35.920Z,9.87
2018-10-17T13:54:04.243Z,10.00
2018-10-17T13:56:32.165Z,9.80
2018-10-17T13:59:00.162Z,9.90
2018-10-17T14:01:28.018Z,11.70
2018-10-17T14:03:56.021Z,19.43
2018-10-17T14:06:23.948Z,18.40
2018-10-17T14:08:51.923Z,8.17
2018-10-17T14:11:19.860Z,8.60
2018-10-17T14:13:47.786Z,11.70
2018-10-17T14:16:15.715Z,11.53
2018-10-17T14:18:43.624Z,8.37
2018-10-17T14:21:11.634Z,7.33
2018-10-17T14:23:39.525Z,8.33
2018-10-17T14:26:07.417Z,12.63
2018-10-17T14:28:35.388Z,9.80
2018-10-17T14:31:03.338Z,8.53
2018-10-17T14:33:31.289Z,9.03
2018-10-17T14:35:59.295Z,8.33
2018-10-17T14:38:27.199Z,10.40
2018-10-17T14:40:55.195Z,9.77
2018-10-17T14:43:23.039Z,10.13
2018-10-17T14:45:50.949Z,6.40
2018-10-17T14:48:18.971Z,6.43
2018-10-17T14:50:46.865Z,7.50
2018-10-17T14:53:15.782Z,8.47
2018-10-17T14:55:43.647Z,9.77
2018-10-17T14:58:11.559Z,8.40
2018-10-17T15:00:39.477Z,8.90
2018-10-17T15:03:07.445Z,13.70
2018-10-17T15:05:35.308Z,13.03
2018-10-17T15:08:03.219Z,8.67
2018-10-17T15:10:31.319Z,10.50
2018-10-17T15:12:59.134Z,12.67
2018-10-17T15:15:27.040Z,12.50
2018-10-17T15:17:54.989Z,10.10
2018-10-17T15:20:22.872Z,11.60
2018-10-17T15:22:50.852Z,11.43
2018-10-17T15:25:18.788Z,14.13
2018-10-17T15:27:46.712Z,11.00
2018-10-17T15:30:14.743Z,12.57
2018-10-17T15:32:42.618Z,14.70
2018-10-17T15:35:10.508Z,10.37
2018-10-17T15:37:38.443Z,14.47
2018-10-17T15:40:06.351Z,15.00
2018-10-17T15:42:34.251Z,15.37
2018-10-17T15:45:02.254Z,12.33
2018-10-17T15:47:30.097Z,12.87
2018-10-17T15:49:58.004Z,11.50
2018-10-17T15:52:25.939Z,11.77
2018-10-17T15:54:53.888Z,11.03
2018-10-17T15:57:21.786Z,12.40
2018-10-17T15:59:49.714Z,15.17
2018-10-17T16:02:17.700Z,15.23
2018-10-17T16:04:45.583Z,12.27
2018-10-17T16:07:13.479Z,14.73
2018-10-17T16:09:41.431Z,12.60
2018-10-17T16:12:09.449Z,12.50
2018-10-17T16:14:37.319Z,14.90
2018-10-17T16:17:05.763Z,12.20
2018-10-17T16:19:33.606Z,10.97
2018-10-17T16:22:01.508Z,15.20
2018-10-17T16:24:29.400Z,14.20
2018-10-17T16:26:57.329Z,12.17
2018-10-17T16:29:25.227Z,11.00
2018-10-17T16:31:53.163Z,12.87
2018-10-17T16:34:21.175Z,12.03
2018-10-17T16:36:49.048Z,10.73
2018-10-17T16:39:16.962Z,13.50
2018-10-17T16:41:44.871Z,17.23
2018-10-17T16:44:13.000Z,12.47
2018-10-17T16:46:40.784Z,15.93
2018-10-17T16:49:08.723Z,17.43
2018-10-17T16:51:36.639Z,16.37
2018-10-17T16:54:04.751Z,14.07
2018-10-17T16:56:32.567Z,25.00
2018-10-17T16:59:00.488Z,18.93
2018-10-17T17:01:28.451Z,13.30
2018-10-17T17:03:56.396Z,20.97
2018-10-17T17:06:24.323Z,17.03
2018-10-17T17:08:52.249Z,18.33
2018-10-17T17:11:20.236Z,21.20
2018-10-17T17:13:48.169Z,12.67
2018-10-17T17:16:16.117Z,23.13
2018-10-17T17:18:44.022Z,17.20
2018-10-17T17:21:11.987Z,22.83
2018-10-17T17:23:39.881Z,15.77
2018-10-17T17:26:07.788Z,15.57
2018-10-17T17:28:35.708Z,15.10
2018-10-17T17:31:03.609Z,19.37
2018-10-17T17:33:31.546Z,17.90
2018-10-17T17:35:59.758Z,21.93
2018-10-17T17:38:27.632Z,21.97
2018-10-17T17:40:55.535Z,18.97
2018-10-17T17:43:23.595Z,17.63
2018-10-17T17:45:51.685Z,23.53
2018-10-17T17:48:19.597Z,18.13
2018-10-17T17:50:47.531Z,17.53
2018-10-17T17:53:15.551Z,18.70
2018-10-17T17:55:43.451Z,18.30
2018-10-17T17:58:11.475Z,16.20
2018-10-17T18:00:39.359Z,17.60
2018-10-17T18:03:07.287Z,18.70
2018-10-17T18:05:35.383Z,16.17
2018-10-17T18:08:03.307Z,22.60
2018-10-17T18:10:31.276Z,20.60
2018-10-17T18:12:59.204Z,18.20
2018-10-17T18:15:27.149Z,17.00
2018-10-17T18:17:55.060Z,22.03
2018-10-17T18:20:23.591Z,19.57
2018-10-17T18:22:51.504Z,21.07
2018-10-17T18:25:19.439Z,14.37
2018-10-17T18:27:47.877Z,22.67
2018-10-17T18:30:15.631Z,23.40
2018-10-17T18:32:43.544Z,25.47
2018-10-17T18:35:12.364Z,20.10
2018-10-17T18:37:40.264Z,18.63
2018-10-17T18:40:08.226Z,20.37
2018-10-17T18:42:36.160Z,21.73
2018-10-17T18:45:04.423Z,21.57
2018-10-17T18:47:32.507Z,22.40
2018-10-17T18:50:00.417Z,23.27
2018-10-17T18:52:28.320Z,19.50
2018-10-17T18:54:56.250Z,21.23
2018-10-17T18:57:24.182Z,22.53
2018-10-17T18:59:52.336Z,23.60
2018-10-17T19:02:20.240Z,25.77
2018-10-17T19:04:48.140Z,20.73
2018-10-17T19:07:16.088Z,18.37
2018-10-17T19:09:44.031Z,19.17
2018-10-17T19:12:11.940Z,20.13
2018-10-17T19:14:39.864Z,22.20
2018-10-17T19:17:07.792Z,23.13
2018-10-17T19:19:35.695Z,26.33
2018-10-17T19:22:03.640Z,20.97
2018-10-17T19:24:31.557Z,20.80
2018-10-17T19:26:59.449Z,21.53
2018-10-17T19:29:27.364Z,32.43
2018-10-17T19:31:55.317Z,20.60
2018-10-17T19:34:23.235Z,25.47
2018-10-17T19:36:51.123Z,24.00
2018-10-17T19:39:19.090Z,29.17
2018-10-17T19:41:46.954Z,32.80
2018-10-17T19:44:14.926Z,28.40
2018-10-17T19:46:42.857Z,33.80
2018-10-17T19:49:10.795Z,31.13
2018-10-17T19:51:38.695Z,29.20
2018-10-17T19:54:07.010Z,33.27
2018-10-17T19:56:34.931Z,31.23
2018-10-17T19:59:02.860Z,31.77
2018-10-17T20:01:31.071Z,33.63
2018-10-17T20:03:58.982Z,32.13
2018-10-17T20:06:26.962Z,35.47
2018-10-17T20:08:54.888Z,31.63
2018-10-17T20:11:22.782Z,33.13
2018-10-17T20:13:50.867Z,31.13
2018-10-17T20:16:18.780Z,31.90
2018-10-17T20:18:46.716Z,37.47
2018-10-17T20:21:15.173Z,37.60
2018-10-17T20:23:42.935Z,32.67
2018-10-17T20:26:11.507Z,37.00
2018-10-17T20:28:39.411Z,36.57
2018-10-17T20:31:07.341Z,30.77
2018-10-17T20:33:35.431Z,37.43
2018-10-17T20:36:03.328Z,34.10
2018-10-17T20:38:31.257Z,42.53
2018-10-17T20:40:59.155Z,38.13
2018-10-17T20:43:27.284Z,41.57
2018-10-17T20:45:55.176Z,44.33
2018-10-17T20:48:23.191Z,46.47
2018-10-17T20:50:51.150Z,43.33
2018-10-17T20:53:19.115Z,44.90
2018-10-17T20:55:47.086Z,43.07
2018-10-17T20:58:15.108Z,46.80
2018-10-17T21:00:43.233Z,43.17
2018-10-17T21:03:11.140Z,51.93
2018-10-17T21:05:39.065Z,49.27
2018-10-17T21:08:07.068Z,42.90
2018-10-17T21:10:34.899Z,47.90
2018-10-17T21:13:02.795Z,61.10
2018-10-17T21:15:30.699Z,60.13
2018-10-17T21:17:58.592Z,62.83
2018-10-17T21:20:26.531Z,64.47
2018-10-17T21:22:54.418Z,71.10
2018-10-17T21:25:22.313Z,63.70
2018-10-17T21:27:50.216Z,72.07
2018-10-17T21:30:18.132Z,70.43
2018-10-17T21:32:46.048Z,72.67
2018-10-17T21:35:13.956Z,67.53
2018-10-17T21:37:41.918Z,70.03
2018-10-17T21:40:09.784Z,73.07
2018-10-17T21:42:37.691Z,75.17
2018-10-17T21:45:06.309Z,82.97
2018-10-17T21:47:34.231Z,84.63
2018-10-17T21:50:02.180Z,69.30
2018-10-17T21:52:30.059Z,63.10
2018-10-17T21:54:57.960Z,74.97
2018-10-17T21:57:25.892Z,71.73
2018-10-17T21:59:53.848Z,70.00
2018-10-17T22:02:21.744Z,78.33
2018-10-17T22:04:49.716Z,68.97
2018-10-17T22:07:17.629Z,90.73
2018-10-17T22:09:45.593Z,78.77
2018-10-17T22:12:13.446Z,78.60
2018-10-17T22:14:41.343Z,73.57
2018-10-17T22:17:09.240Z,78.73
2018-10-17T22:19:38.120Z,84.53
2018-10-17T22:22:06.535Z,84.07
2018-10-17T22:24:34.422Z,79.57
2018-10-17T22:27:02.355Z,80.63
2018-10-17T22:29:30.267Z,69.43
2018-10-17T22:31:58.208Z,74.17
2018-10-17T22:34:26.067Z,83.03
2018-10-17T22:36:53.980Z,82.97
2018-10-17T22:39:21.868Z,85.77
2018-10-17T22:41:49.766Z,92.87
2018-10-17T22:44:17.774Z,101.17
2018-10-17T22:46:45.592Z,104.40
2018-10-17T22:49:13.532Z,98.40
2018-10-17T22:51:41.444Z,96.53
2018-10-17T22:54:09.380Z,92.87
2018-10-17T22:56:38.023Z,99.20
2018-10-17T22:59:06.429Z,98.43
2018-10-17T23:01:34.341Z,94.83
2018-10-17T23:04:02.319Z,99.73
2018-10-17T23:06:30.216Z,97.90
2018-10-17T23:08:58.116Z,107.37
2018-10-17T23:11:26.016Z,94.90
2018-10-17T23:13:53.982Z,103.67
2018-10-17T23:16:21.868Z,100.03
2018-10-17T23:18:49.783Z,110.87
2018-10-17T23:21:17.683Z,98.63
2018-10-17T23:23:45.571Z,109.67
2018-10-17T23:26:13.576Z,108.53
2018-10-17T23:28:41.379Z,108.73
2018-10-17T23:31:09.327Z,106.43
2018-10-17T23:33:37.243Z,113.57
2018-10-17T23:36:05.289Z,110.77
2018-10-17T23:38:33.171Z,116.00
2018-10-17T23:41:01.064Z,111.43
2018-10-17T23:43:29.004Z,118.03
2018-10-17T23:45:56.906Z,114.37
2018-10-17T23:48:24.804Z,111.50
2018-10-17T23:50:52.688Z,90.60
2018-10-17T23:53:20.598Z,80.77
2018-10-17T23:55:48.501Z,82.80
2018-10-17T23:58:16.423Z,93.33
